Time;durP1;ratioP1;P1;durP2;ratioP2;P2;SDS_P1;SDS_P2;PMS_P1;PMS_P2;Temp;Humidity;BMP_temperature;BMP_pressure;BME280_temperature;BME280_humidity;BME280_pressure;Samples;Min_cycle;Max_cycle;Signal;HPM_P1;HPM_P2
2023/01/03 00:04:58;;;;;;;1.58;1.48;;;;;;;;;;10511295;28;20217;-74
2023/01/03 00:10:07;;;;;;;0.98;0.98;;;;;;;;;;10512002;28;20217;-75
2023/01/03 00:15:09;;;;;;;2.83;1.20;;;;;;;;;;10509045;28;20212;-74
2023/01/03 00:20:10;;;;;;;2.47;1.10;;;;;;;;;;10493348;28;20628;-75
2023/01/03 00:25:12;;;;;;;3.00;1.00;;;;;;;;;;10505229;28;20210;-75
2023/01/03 00:30:13;;;;;;;3.45;0.93;;;;;;;;;;10505161;28;20213;-74
2023/01/03 00:35:14;;;;;;;3.88;1.30;;;;;;;;;;10503899;28;20221;-75
2023/01/03 00:40:15;;;;;;;1.40;1.30;;;;;;;;;;10493392;28;20530;-75
2023/01/03 00:45:16;;;;;;;1.10;1.10;;;;;;;;;;10491722;28;20571;-75
2023/01/03 00:50:17;;;;;;;4.22;0.90;;;;;;;;;;10504571;28;20259;-75
2023/01/03 00:55:18;;;;;;;1.33;1.20;;;;;;;;;;10504828;28;20177;-75
2023/01/03 01:00:19;;;;;;;0.88;0.88;;;;;;;;;;10494149;28;20213;-75
2023/01/03 01:05:21;;;;;;;1.98;1.38;;;;;;;;;;10504155;28;20617;-76
2023/01/03 01:10:22;;;;;;;0.88;0.82;;;;;;;;;;10506150;28;20236;-74
2023/01/03 01:15:23;;;;;;;0.85;0.77;;;;;;;;;;10491265;28;20339;-74
2023/01/03 01:20:24;;;;;;;1.10;0.80;;;;;;;;;;10503101;28;20213;-75
2023/01/03 01:25:25;;;;;;;3.63;1.38;;;;;;;;;;10504855;28;20208;-75
2023/01/03 01:30:26;;;;;;;1.52;1.25;;;;;;;;;;10486589;28;20561;-75
2023/01/03 01:35:27;;;;;;;1.55;1.45;;;;;;;;;;10502559;28;20217;-75
2023/01/03 01:40:30;;;;;;;1.38;1.17;;;;;;;;;;10489060;28;20292;-74
2023/01/03 01:45:31;;;;;;;1.98;1.70;;;;;;;;;;10502577;28;20225;-75
2023/01/03 01:50:41;;;;;;;3.00;2.03;;;;;;;;;;10501203;28;20292;-75
2023/01/03 01:56:04;;;;;;;3.72;2.05;;;;;;;;;;10501720;28;20266;-75
2023/01/03 02:01:08;;;;;;;2.00;1.90;;;;;;;;;;10488055;28;20217;-75
2023/01/03 02:06:11;;;;;;;3.13;2.10;;;;;;;;;;10502859;28;20630;-73
2023/01/03 02:11:18;;;;;;;2.60;2.50;;;;;;;;;;10500890;28;20238;-74
2023/01/03 02:16:19;;;;;;;2.15;1.77;;;;;;;;;;10501539;28;20248;-74
2023/01/03 02:21:32;;;;;;;2.00;1.90;;;;;;;;;;10490563;28;20308;-75
2023/01/03 02:26:44;;;;;;;2.25;1.67;;;;;;;;;;10485430;28;20214;-74
2023/01/03 02:31:48;;;;;;;2.67;2.00;;;;;;;;;;10501561;28;20206;-74
2023/01/03 02:37:07;;;;;;;2.00;1.90;;;;;;;;;;10502081;28;20272;-76
2023/01/03 02:47:45;;;;;;;3.33;2.00;;;;;;;;;;10484802;28;20640;-74
2023/01/03 02:52:48;;;;;;;2.03;1.90;;;;;;;;;;10499764;28;20216;-75
2023/01/03 02:57:51;;;;;;;2.40;2.20;;;;;;;;;;10483417;28;20606;-75
2023/01/03 03:02:57;;;;;;;2.35;1.90;;;;;;;;;;10502271;28;20343;-75
2023/01/03 03:07:58;;;;;;;3.67;2.00;;;;;;;;;;10499265;28;20226;-74
2023/01/03 03:13:13;;;;;;;2.92;2.72;;;;;;;;;;10500609;28;20213;-75
2023/01/03 03:18:17;;;;;;;3.28;1.98;;;;;;;;;;10507299;28;20658;-75
2023/01/03 03:28:43;;;;;;;3.28;2.90;;;;;;;;;;10509561;28;20284;-75
2023/01/03 03:33:47;;;;;;;3.42;2.22;;;;;;;;;;10506857;28;20592;-74
2023/01/03 03:38:49;;;;;;;3.08;2.63;;;;;;;;;;10507255;28;20638;-75
2023/01/03 03:54:39;;;;;;;3.95;2.55;;;;;;;;;;10505938;28;20233;-74
2023/01/03 03:59:42;;;;;;;3.97;2.25;;;;;;;;;;10507030;28;20209;-73
2023/01/03 04:04:45;;;;;;;3.00;2.50;;;;;;;;;;10492833;28;20209;-75
2023/01/03 04:09:47;;;;;;;2.72;1.85;;;;;;;;;;10487364;28;20218;-75
2023/01/03 04:14:48;;;;;;;2.10;2.00;;;;;;;;;;10506537;28;20213;-74
2023/01/03 04:19:49;;;;;;;2.65;1.73;;;;;;;;;;10504636;28;20222;-74
2023/01/03 04:24:50;;;;;;;4.75;2.05;;;;;;;;;;10502760;28;20240;-75
2023/01/03 04:29:51;;;;;;;2.33;2.22;;;;;;;;;;10505871;28;20262;-75
2023/01/03 04:34:52;;;;;;;3.25;2.63;;;;;;;;;;10503651;28;20320;-74
2023/01/03 04:39:53;;;;;;;4.78;2.47;;;;;;;;;;10508465;28;20240;-74
2023/01/03 04:44:54;;;;;;;2.97;2.50;;;;;;;;;;10504750;28;20213;-74
2023/01/03 04:49:55;;;;;;;2.70;2.50;;;;;;;;;;10493451;28;20229;-75
2023/01/03 04:54:56;;;;;;;2.33;2.10;;;;;;;;;;10505176;28;20323;-75
2023/01/03 04:59:57;;;;;;;2.40;2.20;;;;;;;;;;10503937;28;20263;-75
2023/01/03 05:04:58;;;;;;;5.28;2.63;;;;;;;;;;10503032;28;20258;-74
2023/01/03 05:09:59;;;;;;;2.63;1.92;;;;;;;;;;10505328;28;20228;-73
2023/01/03 05:15:00;;;;;;;2.78;1.90;;;;;;;;;;10491033;28;20215;-74
2023/01/03 05:30:40;;;;;;;1.83;1.73;;;;;;;;;;10503242;28;20209;-74
2023/01/03 05:35:45;;;;;;;2.78;1.95;;;;;;;;;;10501811;28;20222;-75
2023/01/03 05:40:46;;;;;;;1.83;1.73;;;;;;;;;;10502941;28;20214;-75
2023/01/03 05:45:50;;;;;;;2.70;1.98;;;;;;;;;;10484245;28;20328;-74
2023/01/03 05:50:51;;;;;;;2.72;2.20;;;;;;;;;;10500967;28;20209;-74
2023/01/03 05:55:52;;;;;;;2.08;1.98;;;;;;;;;;10497735;28;20232;-75
2023/01/03 06:00:53;;;;;;;2.03;1.92;;;;;;;;;;10497435;28;20322;-74
2023/01/03 06:05:54;;;;;;;1.70;1.60;;;;;;;;;;10487040;28;20217;-74
2023/01/03 06:10:56;;;;;;;3.33;2.30;;;;;;;;;;10488708;28;20740;-75
2023/01/03 06:21:21;;;;;;;4.05;1.90;;;;;;;;;;10501765;28;20206;-74
2023/01/03 06:26:23;;;;;;;2.45;2.10;;;;;;;;;;10497910;28;20283;-75
2023/01/03 06:31:24;;;;;;;2.38;2.22;;;;;;;;;;10503795;28;20213;-75
2023/01/03 06:36:25;;;;;;;1.52;1.45;;;;;;;;;;10500594;28;20574;-75
2023/01/03 06:41:27;;;;;;;4.53;2.28;;;;;;;;;;10501128;28;20210;-75
2023/01/03 06:57:19;;;;;;;1.83;1.73;;;;;;;;;;10472343;28;20247;-75
2023/01/03 07:02:20;;;;;;;2.17;2.00;;;;;;;;;;10503342;28;20271;-74
2023/01/03 07:07:21;;;;;;;2.08;1.90;;;;;;;;;;10487547;28;20988;-75
2023/01/03 07:17:42;;;;;;;1.95;1.85;;;;;;;;;;10498968;28;20300;-73
2023/01/03 07:22:43;;;;;;;3.50;1.70;;;;;;;;;;10501036;28;20309;-74
2023/01/03 07:27:44;;;;;;;2.50;2.15;;;;;;;;;;10479868;28;20728;-73
2023/01/03 07:32:45;;;;;;;3.42;2.03;;;;;;;;;;10488489;28;20206;-74
2023/01/03 07:37:46;;;;;;;2.90;2.05;;;;;;;;;;10507057;28;21059;-74
2023/01/03 07:48:08;;;;;;;2.30;2.20;;;;;;;;;;10496929;28;20886;-74
2023/01/03 07:53:15;;;;;;;2.70;2.58;;;;;;;;;;10483349;28;20332;-73
2023/01/03 07:58:16;;;;;;;2.55;1.92;;;;;;;;;;10499016;28;20209;-73
2023/01/03 08:03:17;;;;;;;4.85;2.63;;;;;;;;;;10498871;28;20238;-74
2023/01/03 08:08:18;;;;;;;2.08;1.98;;;;;;;;;;10504879;28;20214;-74
2023/01/03 08:13:20;;;;;;;2.80;1.98;;;;;;;;;;10504924;28;20302;-74
2023/01/03 08:18:25;;;;;;;2.40;2.30;;;;;;;;;;10492001;28;20217;-74
2023/01/03 08:23:26;;;;;;;2.63;2.42;;;;;;;;;;10486528;28;20778;-73
2023/01/03 08:28:27;;;;;;;6.20;2.63;;;;;;;;;;10502393;28;20214;-74
2023/01/03 08:33:31;;;;;;;2.65;2.45;;;;;;;;;;10494129;28;20981;-73
2023/01/03 08:38:33;;;;;;;4.25;2.65;;;;;;;;;;10503981;28;20309;-73
2023/01/03 08:43:36;;;;;;;3.33;3.03;;;;;;;;;;10499463;28;20341;-74
2023/01/03 08:48:37;;;;;;;3.22;2.88;;;;;;;;;;10504335;28;20229;-73
2023/01/03 08:53:39;;;;;;;5.47;4.55;;;;;;;;;;10503705;28;20217;-74
2023/01/03 08:58:40;;;;;;;11.55;6.07;;;;;;;;;;10495253;28;20217;-74
2023/01/03 09:03:41;;;;;;;6.82;4.63;;;;;;;;;;10506401;28;20716;-73
2023/01/03 09:08:42;;;;;;;5.70;3.97;;;;;;;;;;10508924;28;20217;-74
2023/01/03 09:13:43;;;;;;;7.90;4.05;;;;;;;;;;10490925;28;20768;-74
2023/01/03 09:18:44;;;;;;;5.18;4.22;;;;;;;;;;10499243;28;20268;-75
2023/01/03 09:23:45;;;;;;;5.03;4.57;;;;;;;;;;10502916;28;20304;-74
2023/01/03 09:28:46;;;;;;;7.53;5.70;;;;;;;;;;10505287;28;20316;-74
2023/01/03 09:33:47;;;;;;;7.90;5.50;;;;;;;;;;10499327;28;20234;-74
2023/01/03 09:38:48;;;;;;;6.95;5.07;;;;;;;;;;10503591;28;20209;-73
2023/01/03 09:43:50;;;;;;;6.65;5.05;;;;;;;;;;10502370;28;20216;-74
2023/01/03 09:48:54;;;;;;;7.13;5.68;;;;;;;;;;10485109;28;20233;-74
2023/01/03 10:04:55;;;;;;;4.55;4.18;;;;;;;;;;10508844;28;20209;-70
2023/01/03 10:10:06;;;;;;;4.63;4.22;;;;;;;;;;10503285;28;20736;-72
2023/01/03 10:15:16;;;;;;;5.57;4.35;;;;;;;;;;10488223;28;20218;-73
2023/01/03 10:20:36;;;;;;;5.00;4.10;;;;;;;;;;10502393;28;20209;-75
2023/01/03 10:25:39;;;;;;;6.28;3.80;;;;;;;;;;10496080;28;20220;-75
2023/01/03 10:30:45;;;;;;;4.57;3.85;;;;;;;;;;10511445;28;20244;-76
2023/01/03 10:35:47;;;;;;;4.93;3.63;;;;;;;;;;10505284;28;20244;-75
2023/01/03 10:40:51;;;;;;;9.40;4.10;;;;;;;;;;10504711;28;21069;-75
2023/01/03 10:45:53;;;;;;;4.25;3.88;;;;;;;;;;10491602;28;20209;-77
2023/01/03 10:50:54;;;;;;;7.78;4.35;;;;;;;;;;10483251;28;20275;-78
2023/01/03 10:55:57;;;;;;;3.90;3.58;;;;;;;;;;10500575;28;20233;-77
2023/01/03 11:01:25;;;;;;;6.55;4.13;;;;;;;;;;10502186;28;20753;-77
2023/01/03 11:06:26;;;;;;;6.20;4.40;;;;;;;;;;10501260;28;20232;-76
2023/01/03 11:11:34;;;;;;;4.07;3.78;;;;;;;;;;10488975;28;20216;-77
2023/01/03 11:16:35;;;;;;;4.03;3.70;;;;;;;;;;10494175;28;20210;-76
2023/01/03 11:21:45;;;;;;;3.78;3.40;;;;;;;;;;10481071;28;20745;-75
2023/01/03 11:27:02;;;;;;;4.57;3.97;;;;;;;;;;10506108;28;20221;-76
2023/01/03 11:32:23;;;;;;;3.78;3.53;;;;;;;;;;10499134;28;20222;-74
2023/01/03 11:37:32;;;;;;;3.80;3.47;;;;;;;;;;10498800;28;20236;-74
2023/01/03 11:42:54;;;;;;;3.05;2.95;;;;;;;;;;10500144;28;20253;-74
2023/01/03 11:48:02;;;;;;;2.80;2.58;;;;;;;;;;10493472;28;20244;-75
2023/01/03 11:53:06;;;;;;;2.63;2.47;;;;;;;;;;10496788;28;20357;-75
2023/01/03 11:58:16;;;;;;;3.33;3.10;;;;;;;;;;10491027;28;20220;-74
2023/01/03 12:03:32;;;;;;;3.30;3.10;;;;;;;;;;10505116;28;20236;-74
2023/01/03 12:08:38;;;;;;;4.13;3.00;;;;;;;;;;10509040;28;20213;-75
2023/01/03 12:13:39;;;;;;;1.90;1.90;;;;;;;;;;10507491;28;20205;-74
2023/01/03 12:18:43;;;;;;;2.00;1.98;;;;;;;;;;10509217;28;20279;-73
2023/01/03 12:23:50;;;;;;;2.97;2.67;;;;;;;;;;10489494;28;20324;-74
2023/01/03 12:28:55;;;;;;;2.70;2.60;;;;;;;;;;10498860;28;20296;-76
2023/01/03 12:34:03;;;;;;;2.15;2.05;;;;;;;;;;10509930;28;20304;-75
2023/01/03 12:39:04;;;;;;;2.17;2.08;;;;;;;;;;10506992;28;20572;-76
2023/01/03 12:44:12;;;;;;;1.42;1.20;;;;;;;;;;10510821;28;20297;-75
2023/01/03 12:49:16;;;;;;;2.22;1.45;;;;;;;;;;10488179;28;20237;-76
2023/01/03 12:54:33;;;;;;;0.93;0.90;;;;;;;;;;10505908;28;20301;-75
2023/01/03 13:00:04;;;;;;;1.92;1.38;;;;;;;;;;10493262;28;20972;-75
2023/01/03 13:05:31;;;;;;;1.48;1.38;;;;;;;;;;10462763;28;20232;-75
2023/01/03 13:10:34;;;;;;;4.63;1.65;;;;;;;;;;10499193;28;20224;-75
2023/01/03 13:15:35;;;;;;;1.15;1.00;;;;;;;;;;10493275;28;20202;-76
2023/01/03 13:20:36;;;;;;;2.17;1.35;;;;;;;;;;10492707;28;20681;-75
2023/01/03 13:25:42;;;;;;;4.35;1.23;;;;;;;;;;10506914;28;20212;-75
2023/01/03 13:30:43;;;;;;;3.67;1.30;;;;;;;;;;10491161;28;20226;-75
2023/01/03 13:35:45;;;;;;;2.70;1.20;;;;;;;;;;10496324;28;20671;-74
2023/01/03 13:40:47;;;;;;;1.70;1.08;;;;;;;;;;10508842;28;20209;-76
2023/01/03 13:45:49;;;;;;;1.15;1.15;;;;;;;;;;10491263;28;20209;-75
2023/01/03 13:51:04;;;;;;;2.80;1.48;;;;;;;;;;10510475;28;20222;-76
2023/01/03 13:56:14;;;;;;;3.03;1.13;;;;;;;;;;10509289;28;20208;-77
2023/01/03 14:01:22;;;;;;;3.30;1.20;;;;;;;;;;10508145;28;20213;-76
2023/01/03 14:06:41;;;;;;;1.05;0.98;;;;;;;;;;10492547;28;20386;-76
2023/01/03 14:11:59;;;;;;;1.50;1.02;;;;;;;;;;10505554;28;20213;-77
2023/01/03 14:17:01;;;;;;;1.58;1.30;;;;;;;;;;10504416;28;20700;-76
2023/01/03 14:22:11;;;;;;;1.33;1.23;;;;;;;;;;10489219;28;20236;-76
2023/01/03 14:27:13;;;;;;;1.17;1.17;;;;;;;;;;10505849;28;20756;-76
2023/01/03 14:32:22;;;;;;;1.88;1.38;;;;;;;;;;10495930;28;20216;-75
2023/01/03 14:37:25;;;;;;;4.07;2.00;;;;;;;;;;10454482;28;20235;-76
2023/01/03 14:42:26;;;;;;;2.58;1.52;;;;;;;;;;10463078;28;20301;-75
2023/01/03 14:47:29;;;;;;;2.60;2.10;;;;;;;;;;10458269;28;20226;-75
2023/01/03 14:52:42;;;;;;;1.75;1.70;;;;;;;;;;10456967;28;20592;-75
2023/01/03 14:57:44;;;;;;;4.00;1.65;;;;;;;;;;10463654;28;20214;-75
2023/01/03 15:02:46;;;;;;;2.95;2.70;;;;;;;;;;10461868;28;20218;-74
2023/01/03 15:07:47;;;;;;;4.20;2.70;;;;;;;;;;10458403;28;20221;-74
2023/01/03 15:12:49;;;;;;;4.10;2.30;;;;;;;;;;10453421;28;20210;-75
2023/01/03 15:17:52;;;;;;;1.95;1.85;;;;;;;;;;10466540;28;20210;-75
2023/01/03 15:22:54;;;;;;;1.95;1.83;;;;;;;;;;10453121;28;20684;-76
2023/01/03 15:27:56;;;;;;;2.35;2.25;;;;;;;;;;10469279;28;20226;-76
2023/01/03 15:32:58;;;;;;;6.20;2.50;;;;;;;;;;10468690;28;20210;-76
2023/01/03 15:38:00;;;;;;;3.47;2.83;;;;;;;;;;10447932;28;20226;-77
2023/01/03 15:43:22;;;;;;;4.75;3.00;;;;;;;;;;10438645;28;20249;-76
2023/01/03 15:48:24;;;;;;;3.13;2.92;;;;;;;;;;10471864;28;20222;-76
2023/01/03 15:53:33;;;;;;;5.80;3.30;;;;;;;;;;10454750;28;20207;-76
2023/01/03 15:58:35;;;;;;;6.88;4.03;;;;;;;;;;10470190;28;20615;-76
2023/01/03 16:03:37;;;;;;;3.90;3.50;;;;;;;;;;10468592;28;20210;-76
2023/01/03 16:08:39;;;;;;;6.38;3.35;;;;;;;;;;10451992;28;20305;-76
2023/01/03 16:13:42;;;;;;;3.38;3.17;;;;;;;;;;10470335;28;20201;-76
2023/01/03 16:18:45;;;;;;;6.28;3.10;;;;;;;;;;10455954;28;20241;-76
2023/01/03 16:23:46;;;;;;;3.58;3.28;;;;;;;;;;10471281;28;20282;-76
2023/01/03 16:28:47;;;;;;;4.40;3.28;;;;;;;;;;10471566;28;20214;-77
2023/01/03 16:33:49;;;;;;;3.67;3.38;;;;;;;;;;10469851;28;20227;-77
2023/01/03 16:38:50;;;;;;;5.82;3.78;;;;;;;;;;10475520;28;20219;-76
2023/01/03 16:43:52;;;;;;;4.35;3.90;;;;;;;;;;10471911;28;20567;-76
2023/01/03 16:48:55;;;;;;;7.82;4.03;;;;;;;;;;10476637;28;20241;-76
2023/01/03 16:53:57;;;;;;;6.22;4.07;;;;;;;;;;10460259;28;21000;-76
2023/01/03 16:58:58;;;;;;;8.55;4.00;;;;;;;;;;10473670;28;20206;-74
2023/01/03 17:03:59;;;;;;;3.33;3.03;;;;;;;;;;10476532;28;20225;-73
2023/01/03 17:09:02;;;;;;;3.33;3.13;;;;;;;;;;10445571;28;20213;-75
2023/01/03 17:14:03;;;;;;;5.00;3.20;;;;;;;;;;10466551;28;20210;-76
2023/01/03 17:19:04;;;;;;;4.70;4.28;;;;;;;;;;10453498;28;20218;-76
2023/01/03 17:24:07;;;;;;;4.80;4.38;;;;;;;;;;10451770;28;20222;-76
2023/01/03 17:29:12;;;;;;;5.45;4.95;;;;;;;;;;10471159;28;20232;-77
2023/01/03 17:34:21;;;;;;;27.90;14.05;;;;;;;;;;10471084;28;20325;-77
2023/01/03 17:39:23;;;;;;;50.45;20.83;;;;;;;;;;10499787;28;20282;-77
2023/01/03 17:44:24;;;;;;;7.88;5.20;;;;;;;;;;10505383;28;20270;-76
2023/01/03 17:49:25;;;;;;;24.38;11.57;;;;;;;;;;10508046;28;20217;-77
2023/01/03 17:54:30;;;;;;;12.45;7.65;;;;;;;;;;10516086;28;20220;-76
2023/01/03 17:59:32;;;;;;;24.73;10.30;;;;;;;;;;10508012;28;20304;-76
2023/01/03 18:04:33;;;;;;;39.25;13.52;;;;;;;;;;10498434;28;20213;-76
2023/01/03 18:09:34;;;;;;;42.13;16.52;;;;;;;;;;10508599;28;20907;-75
2023/01/03 18:14:35;;;;;;;31.92;12.90;;;;;;;;;;10478789;28;20684;-77
2023/01/03 18:19:36;;;;;;;44.38;15.15;;;;;;;;;;10504030;28;20219;-78
2023/01/03 18:24:38;;;;;;;4.97;4.00;;;;;;;;;;10500073;28;20220;-79
2023/01/03 18:29:39;;;;;;;2.40;2.30;;;;;;;;;;10503894;28;20316;-81
2023/01/03 18:34:40;;;;;;;3.70;3.40;;;;;;;;;;10501080;28;20233;-79
2023/01/03 18:39:42;;;;;;;3.22;2.92;;;;;;;;;;10513272;28;20629;-81
2023/01/03 18:44:43;;;;;;;6.38;2.03;;;;;;;;;;10513782;28;20340;-83
2023/01/03 18:49:44;;;;;;;2.42;2.30;;;;;;;;;;10520593;28;20228;-88
2023/01/03 18:54:45;;;;;;;1.73;1.73;;;;;;;;;;10526899;28;20209;-88
2023/01/03 18:59:48;;;;;;;1.73;1.63;;;;;;;;;;10516528;28;20524;-86
2023/01/03 19:04:49;;;;;;;2.38;1.15;;;;;;;;;;10511337;28;20760;-80
2023/01/03 19:09:50;;;;;;;0.93;0.82;;;;;;;;;;10507297;28;20224;-82
2023/01/03 19:14:52;;;;;;;1.45;1.23;;;;;;;;;;10487398;28;20256;-81
2023/01/03 19:19:53;;;;;;;2.30;1.08;;;;;;;;;;10506632;28;20225;-80
2023/01/03 19:24:55;;;;;;;0.93;0.90;;;;;;;;;;10502564;28;20651;-78
2023/01/03 19:29:56;;;;;;;1.02;0.98;;;;;;;;;;10477488;28;20241;-79
2023/01/03 19:34:57;;;;;;;1.20;1.10;;;;;;;;;;10501964;28;20245;-76
2023/01/03 19:39:58;;;;;;;1.48;1.38;;;;;;;;;;10509210;28;20222;-77
2023/01/03 19:45:07;;;;;;;1.35;1.23;;;;;;;;;;10507350;28;20917;-76
2023/01/03 19:50:22;;;;;;;1.98;0.73;;;;;;;;;;10500690;28;20226;-77
2023/01/03 19:55:27;;;;;;;1.00;1.00;;;;;;;;;;10503359;28;20668;-75
2023/01/03 20:00:31;;;;;;;0.93;0.90;;;;;;;;;;10494323;28;20581;-77
2023/01/03 20:05:36;;;;;;;4.13;2.88;;;;;;;;;;10514189;28;20244;-73
2023/01/03 20:10:38;;;;;;;19.35;7.25;;;;;;;;;;10513700;28;20661;-79
2023/01/03 20:15:41;;;;;;;26.00;10.52;;;;;;;;;;10514893;28;20213;-78
2023/01/03 20:20:42;;;;;;;8.57;4.38;;;;;;;;;;10478279;28;20222;-77
2023/01/03 20:25:44;;;;;;;2.25;2.05;;;;;;;;;;10490503;28;20214;-78
2023/01/03 20:30:45;;;;;;;3.20;2.85;;;;;;;;;;10500247;28;20219;-74
2023/01/03 20:35:46;;;;;;;2.20;1.95;;;;;;;;;;10496634;28;20774;-75
2023/01/03 20:40:48;;;;;;;1.65;1.45;;;;;;;;;;10507186;28;20217;-75
2023/01/03 20:45:52;;;;;;;3.40;1.73;;;;;;;;;;10513683;28;20216;-78
2023/01/03 20:50:53;;;;;;;1.83;1.73;;;;;;;;;;10510734;28;20225;-69
2023/01/03 20:55:54;;;;;;;3.72;1.70;;;;;;;;;;10505597;28;20866;-73
2023/01/03 21:00:55;;;;;;;2.05;1.95;;;;;;;;;;10505463;28;20224;-77
2023/01/03 21:05:56;;;;;;;1.83;1.73;;;;;;;;;;10504704;28;20181;-76
2023/01/03 21:10:57;;;;;;;2.67;1.92;;;;;;;;;;10503837;28;20316;-77
2023/01/03 21:15:58;;;;;;;5.28;1.92;;;;;;;;;;10504278;28;20673;-77
2023/01/03 21:21:03;;;;;;;1.65;1.55;;;;;;;;;;10486716;28;20205;-76
2023/01/03 21:26:06;;;;;;;2.50;1.98;;;;;;;;;;10500781;28;20210;-77
2023/01/03 21:31:12;;;;;;;2.67;1.92;;;;;;;;;;10513036;28;20741;-78
2023/01/03 21:36:14;;;;;;;4.93;2.53;;;;;;;;;;10518479;28;20261;-77
2023/01/03 21:41:17;;;;;;;4.68;1.70;;;;;;;;;;10503812;28;20212;-77
2023/01/03 21:46:18;;;;;;;2.53;2.33;;;;;;;;;;10510699;28;20554;-77
2023/01/03 21:51:19;;;;;;;1.83;1.73;;;;;;;;;;10503898;28;20210;-77
2023/01/03 21:56:22;;;;;;;2.67;2.45;;;;;;;;;;10497086;28;20206;-76
2023/01/03 22:01:23;;;;;;;2.20;1.85;;;;;;;;;;10514442;28;20214;-76
2023/01/03 22:06:25;;;;;;;1.98;1.88;;;;;;;;;;10498371;28;20724;-76
2023/01/03 22:11:26;;;;;;;2.45;2.25;;;;;;;;;;10499981;28;20217;-76
2023/01/03 22:16:28;;;;;;;3.50;2.50;;;;;;;;;;10503463;28;20229;-76
2023/01/03 22:21:29;;;;;;;1.95;1.90;;;;;;;;;;10513691;28;20714;-76
2023/01/03 22:26:30;;;;;;;3.85;2.20;;;;;;;;;;10509025;28;21610;-76
2023/01/03 22:31:31;;;;;;;2.65;2.30;;;;;;;;;;10510533;28;20259;-76
2023/01/03 22:36:32;;;;;;;2.83;2.63;;;;;;;;;;10509999;28;20225;-76
2023/01/03 22:41:33;;;;;;;2.20;2.10;;;;;;;;;;10512909;28;20201;-76
2023/01/03 22:46:35;;;;;;;2.78;1.65;;;;;;;;;;10502760;28;20210;-76
2023/01/03 22:51:36;;;;;;;1.60;1.50;;;;;;;;;;10512936;28;20216;-76
2023/01/03 22:56:37;;;;;;;2.50;2.30;;;;;;;;;;10510611;28;20740;-76
2023/01/03 23:01:38;;;;;;;2.63;2.42;;;;;;;;;;10503078;28;20210;-76
2023/01/03 23:06:39;;;;;;;2.05;1.95;;;;;;;;;;10507685;28;20206;-77
2023/01/03 23:17:54;;;;;;;2.78;1.90;;;;;;;;;;10514735;28;20216;-77
2023/01/03 23:22:21;;;;;;;2.50;2.30;;;;;;;;;;10508547;28;20213;-75
2023/01/03 23:27:26;;;;;;;4.80;2.55;;;;;;;;;;10506786;28;20210;-75
2023/01/03 23:32:27;;;;;;;1.98;1.88;;;;;;;;;;10507972;28;20210;-75
2023/01/03 23:37:28;;;;;;;3.28;1.60;;;;;;;;;;10522765;28;20214;-76
2023/01/03 23:42:29;;;;;;;1.38;1.38;;;;;;;;;;10512386;28;20214;-77
2023/01/03 23:47:30;;;;;;;2.28;1.98;;;;;;;;;;10513895;28;20222;-76
2023/01/03 23:52:32;;;;;;;1.88;1.77;;;;;;;;;;10519524;28;20608;-75
2023/01/03 23:57:33;;;;;;;3.10;1.60;;;;;;;;;;10521676;28;20241;-77
